sensor_id;sensor_type;location;lat;lon;timestamp;P1;durP1;ratioP1;P2;durP2;ratioP2
47617;SDS011;33336;36.728;-4.414;2022-12-20T00:01:35;9.15;;;5.40;;
47617;SDS011;33336;36.728;-4.414;2022-12-20T00:06:38;8.95;;;5.25;;
47617;SDS011;33336;36.728;-4.414;2022-12-20T00:11:42;6.97;;;5.60;;
47617;SDS011;33336;36.728;-4.414;2022-12-20T00:16:46;10.20;;;5.22;;
47617;SDS011;33336;36.728;-4.414;2022-12-20T00:21:50;10.18;;;6.40;;
47617;SDS011;33336;36.728;-4.414;2022-12-20T00:26:53;8.23;;;5.97;;
47617;SDS011;33336;36.728;-4.414;2022-12-20T00:31:58;8.88;;;4.28;;
47617;SDS011;33336;36.728;-4.414;2022-12-20T00:37:01;6.65;;;3.53;;
47617;SDS011;33336;36.728;-4.414;2022-12-20T00:42:04;7.50;;;3.25;;
47617;SDS011;33336;36.728;-4.414;2022-12-20T00:47:09;9.57;;;3.30;;
47617;SDS011;33336;36.728;-4.414;2022-12-20T00:52:13;7.20;;;2.95;;
47617;SDS011;33336;36.728;-4.414;2022-12-20T00:57:15;4.95;;;2.67;;
47617;SDS011;33336;36.728;-4.414;2022-12-20T01:02:20;5.00;;;2.85;;
47617;SDS011;33336;36.728;-4.414;2022-12-20T01:07:23;8.52;;;3.35;;
47617;SDS011;33336;36.728;-4.414;2022-12-20T01:12:27;6.45;;;3.00;;
47617;SDS011;33336;36.728;-4.414;2022-12-20T01:17:31;5.43;;;2.30;;
47617;SDS011;33336;36.728;-4.414;2022-12-20T01:22:35;4.47;;;2.40;;
47617;SDS011;33336;36.728;-4.414;2022-12-20T01:27:38;3.45;;;2.55;;
47617;SDS011;33336;36.728;-4.414;2022-12-20T01:32:43;7.05;;;2.88;;
47617;SDS011;33336;36.728;-4.414;2022-12-20T01:37:46;7.85;;;2.78;;
47617;SDS011;33336;36.728;-4.414;2022-12-20T01:42:49;5.82;;;2.60;;
47617;SDS011;33336;36.728;-4.414;2022-12-20T01:47:54;4.65;;;3.15;;
47617;SDS011;33336;36.728;-4.414;2022-12-20T01:52:58;6.90;;;2.58;;
47617;SDS011;33336;36.728;-4.414;2022-12-20T01:58:04;4.35;;;2.15;;
47617;SDS011;33336;36.728;-4.414;2022-12-20T02:03:12;5.85;;;2.75;;
47617;SDS011;33336;36.728;-4.414;2022-12-20T02:08:17;5.35;;;2.60;;
47617;SDS011;33336;36.728;-4.414;2022-12-20T02:13:23;3.65;;;2.53;;
47617;SDS011;33336;36.728;-4.414;2022-12-20T02:18:36;3.70;;;2.35;;
47617;SDS011;33336;36.728;-4.414;2022-12-20T02:23:51;3.42;;;2.40;;
47617;SDS011;33336;36.728;-4.414;2022-12-20T02:29:24;4.43;;;2.63;;
47617;SDS011;33336;36.728;-4.414;2022-12-20T02:34:37;4.20;;;2.10;;
47617;SDS011;33336;36.728;-4.414;2022-12-20T02:39:42;8.73;;;2.10;;
47617;SDS011;33336;36.728;-4.414;2022-12-20T02:44:48;5.22;;;2.10;;
47617;SDS011;33336;36.728;-4.414;2022-12-20T02:50:12;3.05;;;2.03;;
47617;SDS011;33336;36.728;-4.414;2022-12-20T02:55:19;6.00;;;2.10;;
47617;SDS011;33336;36.728;-4.414;2022-12-20T03:00:31;2.25;;;1.50;;
47617;SDS011;33336;36.728;-4.414;2022-12-20T03:05:43;3.37;;;1.50;;
47617;SDS011;33336;36.728;-4.414;2022-12-20T03:10:47;3.67;;;1.67;;
47617;SDS011;33336;36.728;-4.414;2022-12-20T03:15:51;2.47;;;1.73;;
47617;SDS011;33336;36.728;-4.414;2022-12-20T03:20:56;2.25;;;1.70;;
47617;SDS011;33336;36.728;-4.414;2022-12-20T03:25:59;2.55;;;1.63;;
47617;SDS011;33336;36.728;-4.414;2022-12-20T03:31:02;4.07;;;1.60;;
47617;SDS011;33336;36.728;-4.414;2022-12-20T03:36:07;2.20;;;1.90;;
47617;SDS011;33336;36.728;-4.414;2022-12-20T03:41:10;9.63;;;2.30;;
47617;SDS011;33336;36.728;-4.414;2022-12-20T03:46:14;5.70;;;1.65;;
47617;SDS011;33336;36.728;-4.414;2022-12-20T03:51:18;3.92;;;1.23;;
47617;SDS011;33336;36.728;-4.414;2022-12-20T03:56:21;4.95;;;1.50;;
47617;SDS011;33336;36.728;-4.414;2022-12-20T04:01:25;2.72;;;1.40;;
47617;SDS011;33336;36.728;-4.414;2022-12-20T04:06:31;6.82;;;1.67;;
47617;SDS011;33336;36.728;-4.414;2022-12-20T04:11:34;2.35;;;1.63;;
47617;SDS011;33336;36.728;-4.414;2022-12-20T04:16:36;4.50;;;1.52;;
47617;SDS011;33336;36.728;-4.414;2022-12-20T04:21:41;6.60;;;1.35;;
47617;SDS011;33336;36.728;-4.414;2022-12-20T04:26:44;2.80;;;1.35;;
47617;SDS011;33336;36.728;-4.414;2022-12-20T04:31:48;2.13;;;1.40;;
47617;SDS011;33336;36.728;-4.414;2022-12-20T04:36:54;2.45;;;1.20;;
47617;SDS011;33336;36.728;-4.414;2022-12-20T04:41:57;4.45;;;1.55;;
47617;SDS011;33336;36.728;-4.414;2022-12-20T04:47:00;4.53;;;1.80;;
47617;SDS011;33336;36.728;-4.414;2022-12-20T04:52:05;2.38;;;1.48;;
47617;SDS011;33336;36.728;-4.414;2022-12-20T04:57:21;1.95;;;1.52;;
47617;SDS011;33336;36.728;-4.414;2022-12-20T05:02:24;2.08;;;1.30;;
47617;SDS011;33336;36.728;-4.414;2022-12-20T05:07:29;6.13;;;1.90;;
47617;SDS011;33336;36.728;-4.414;2022-12-20T05:12:32;4.00;;;1.50;;
47617;SDS011;33336;36.728;-4.414;2022-12-20T05:17:34;2.63;;;1.55;;
47617;SDS011;33336;36.728;-4.414;2022-12-20T05:22:39;9.80;;;1.83;;
47617;SDS011;33336;36.728;-4.414;2022-12-20T05:28:00;2.25;;;1.52;;
47617;SDS011;33336;36.728;-4.414;2022-12-20T05:33:03;4.43;;;1.60;;
47617;SDS011;33336;36.728;-4.414;2022-12-20T05:38:08;3.65;;;1.90;;
47617;SDS011;33336;36.728;-4.414;2022-12-20T05:43:11;8.07;;;2.00;;
47617;SDS011;33336;36.728;-4.414;2022-12-20T05:48:15;4.40;;;2.00;;
47617;SDS011;33336;36.728;-4.414;2022-12-20T05:53:19;6.55;;;1.65;;
47617;SDS011;33336;36.728;-4.414;2022-12-20T05:58:22;4.05;;;2.80;;
47617;SDS011;33336;36.728;-4.414;2022-12-20T06:03:25;4.50;;;2.00;;
47617;SDS011;33336;36.728;-4.414;2022-12-20T06:08:30;4.82;;;1.98;;
47617;SDS011;33336;36.728;-4.414;2022-12-20T06:13:33;4.65;;;2.22;;
47617;SDS011;33336;36.728;-4.414;2022-12-20T06:18:36;2.83;;;2.03;;
47617;SDS011;33336;36.728;-4.414;2022-12-20T06:23:41;5.50;;;2.50;;
47617;SDS011;33336;36.728;-4.414;2022-12-20T06:28:44;11.77;;;2.97;;
47617;SDS011;33336;36.728;-4.414;2022-12-20T06:33:51;3.53;;;2.20;;
47617;SDS011;33336;36.728;-4.414;2022-12-20T06:38:57;8.40;;;3.28;;
47617;SDS011;33336;36.728;-4.414;2022-12-20T06:44:00;4.45;;;2.55;;
47617;SDS011;33336;36.728;-4.414;2022-12-20T06:49:03;6.38;;;2.67;;
47617;SDS011;33336;36.728;-4.414;2022-12-20T06:54:08;7.30;;;3.08;;
47617;SDS011;33336;36.728;-4.414;2022-12-20T06:59:11;5.22;;;2.30;;
47617;SDS011;33336;36.728;-4.414;2022-12-20T07:04:15;4.35;;;2.10;;
47617;SDS011;33336;36.728;-4.414;2022-12-20T07:09:20;2.65;;;2.42;;
47617;SDS011;33336;36.728;-4.414;2022-12-20T07:14:22;4.93;;;2.13;;
47617;SDS011;33336;36.728;-4.414;2022-12-20T07:19:26;7.88;;;3.15;;
47617;SDS011;33336;36.728;-4.414;2022-12-20T07:24:31;9.35;;;3.10;;
47617;SDS011;33336;36.728;-4.414;2022-12-20T07:29:34;7.55;;;3.05;;
47617;SDS011;33336;36.728;-4.414;2022-12-20T07:34:39;8.20;;;3.17;;
47617;SDS011;33336;36.728;-4.414;2022-12-20T07:39:46;7.80;;;2.90;;
47617;SDS011;33336;36.728;-4.414;2022-12-20T07:44:56;9.45;;;3.65;;
47617;SDS011;33336;36.728;-4.414;2022-12-20T07:49:59;4.90;;;3.22;;
47617;SDS011;33336;36.728;-4.414;2022-12-20T07:55:04;4.50;;;2.65;;
47617;SDS011;33336;36.728;-4.414;2022-12-20T08:00:10;7.38;;;3.00;;
47617;SDS011;33336;36.728;-4.414;2022-12-20T08:05:14;5.22;;;2.78;;
47617;SDS011;33336;36.728;-4.414;2022-12-20T08:10:20;6.90;;;2.83;;
47617;SDS011;33336;36.728;-4.414;2022-12-20T08:15:23;4.32;;;2.47;;
47617;SDS011;33336;36.728;-4.414;2022-12-20T08:20:26;9.82;;;2.90;;
47617;SDS011;33336;36.728;-4.414;2022-12-20T08:25:30;7.82;;;3.72;;
47617;SDS011;33336;36.728;-4.414;2022-12-20T08:30:35;7.25;;;3.60;;
47617;SDS011;33336;36.728;-4.414;2022-12-20T08:35:38;7.85;;;3.72;;
47617;SDS011;33336;36.728;-4.414;2022-12-20T08:40:43;12.05;;;4.18;;
47617;SDS011;33336;36.728;-4.414;2022-12-20T08:45:50;8.23;;;3.17;;
47617;SDS011;33336;36.728;-4.414;2022-12-20T08:56:03;17.10;;;4.20;;
47617;SDS011;33336;36.728;-4.414;2022-12-20T09:01:08;11.15;;;4.40;;
47617;SDS011;33336;36.728;-4.414;2022-12-20T09:06:13;13.35;;;4.38;;
47617;SDS011;33336;36.728;-4.414;2022-12-20T09:11:19;9.85;;;4.57;;
47617;SDS011;33336;36.728;-4.414;2022-12-20T09:16:30;9.38;;;4.95;;
47617;SDS011;33336;36.728;-4.414;2022-12-20T09:21:37;23.95;;;5.85;;
47617;SDS011;33336;36.728;-4.414;2022-12-20T09:26:42;11.93;;;5.20;;
47617;SDS011;33336;36.728;-4.414;2022-12-20T09:31:45;15.15;;;5.10;;
47617;SDS011;33336;36.728;-4.414;2022-12-20T09:36:50;11.80;;;4.75;;
47617;SDS011;33336;36.728;-4.414;2022-12-20T09:41:55;11.13;;;4.97;;
47617;SDS011;33336;36.728;-4.414;2022-12-20T09:47:00;15.65;;;5.50;;
47617;SDS011;33336;36.728;-4.414;2022-12-20T09:52:24;14.60;;;5.32;;
47617;SDS011;33336;36.728;-4.414;2022-12-20T09:57:42;14.90;;;6.00;;
47617;SDS011;33336;36.728;-4.414;2022-12-20T10:02:51;13.48;;;6.88;;
47617;SDS011;33336;36.728;-4.414;2022-12-20T10:07:56;19.52;;;10.77;;
47617;SDS011;33336;36.728;-4.414;2022-12-20T10:13:09;23.50;;;11.20;;
47617;SDS011;33336;36.728;-4.414;2022-12-20T10:18:27;28.00;;;11.68;;
47617;SDS011;33336;36.728;-4.414;2022-12-20T10:23:41;24.20;;;12.25;;
47617;SDS011;33336;36.728;-4.414;2022-12-20T10:28:48;29.05;;;13.32;;
47617;SDS011;33336;36.728;-4.414;2022-12-20T10:33:52;23.17;;;11.60;;
47617;SDS011;33336;36.728;-4.414;2022-12-20T10:38:55;24.38;;;13.48;;
47617;SDS011;33336;36.728;-4.414;2022-12-20T10:44:02;24.75;;;12.65;;
47617;SDS011;33336;36.728;-4.414;2022-12-20T10:49:21;19.87;;;13.20;;
47617;SDS011;33336;36.728;-4.414;2022-12-20T10:54:33;22.45;;;11.45;;
47617;SDS011;33336;36.728;-4.414;2022-12-20T10:59:41;28.55;;;12.85;;
47617;SDS011;33336;36.728;-4.414;2022-12-20T11:04:46;19.70;;;11.93;;
47617;SDS011;33336;36.728;-4.414;2022-12-20T11:10:00;21.60;;;13.15;;
47617;SDS011;33336;36.728;-4.414;2022-12-20T11:15:21;22.48;;;12.80;;
47617;SDS011;33336;36.728;-4.414;2022-12-20T11:20:27;22.48;;;13.40;;
47617;SDS011;33336;36.728;-4.414;2022-12-20T11:25:42;22.48;;;13.75;;
47617;SDS011;33336;36.728;-4.414;2022-12-20T11:30:56;31.65;;;13.57;;
47617;SDS011;33336;36.728;-4.414;2022-12-20T11:36:12;21.85;;;13.20;;
47617;SDS011;33336;36.728;-4.414;2022-12-20T11:41:23;31.05;;;15.55;;
47617;SDS011;33336;36.728;-4.414;2022-12-20T11:46:42;15.15;;;8.70;;
47617;SDS011;33336;36.728;-4.414;2022-12-20T11:51:57;11.43;;;8.32;;
47617;SDS011;33336;36.728;-4.414;2022-12-20T11:57:10;12.55;;;4.75;;
47617;SDS011;33336;36.728;-4.414;2022-12-20T12:02:19;15.32;;;8.55;;
47617;SDS011;33336;36.728;-4.414;2022-12-20T12:07:29;12.27;;;5.45;;
47617;SDS011;33336;36.728;-4.414;2022-12-20T12:12:36;14.93;;;6.75;;
47617;SDS011;33336;36.728;-4.414;2022-12-20T12:17:46;17.10;;;7.85;;
47617;SDS011;33336;36.728;-4.414;2022-12-20T12:22:52;11.65;;;8.30;;
47617;SDS011;33336;36.728;-4.414;2022-12-20T12:28:02;14.20;;;8.20;;
47617;SDS011;33336;36.728;-4.414;2022-12-20T12:33:09;12.15;;;8.25;;
47617;SDS011;33336;36.728;-4.414;2022-12-20T12:38:24;16.23;;;8.43;;
47617;SDS011;33336;36.728;-4.414;2022-12-20T12:43:45;15.93;;;9.23;;
47617;SDS011;33336;36.728;-4.414;2022-12-20T12:48:55;15.00;;;8.13;;
47617;SDS011;33336;36.728;-4.414;2022-12-20T12:54:02;10.82;;;6.40;;
47617;SDS011;33336;36.728;-4.414;2022-12-20T12:59:23;10.27;;;4.88;;
47617;SDS011;33336;36.728;-4.414;2022-12-20T13:04:52;10.27;;;5.32;;
47617;SDS011;33336;36.728;-4.414;2022-12-20T13:09:57;15.10;;;4.43;;
47617;SDS011;33336;36.728;-4.414;2022-12-20T13:15:00;6.70;;;3.70;;
47617;SDS011;33336;36.728;-4.414;2022-12-20T13:20:14;6.80;;;3.85;;
47617;SDS011;33336;36.728;-4.414;2022-12-20T13:25:26;11.60;;;6.35;;
47617;SDS011;33336;36.728;-4.414;2022-12-20T13:30:31;9.07;;;4.18;;
47617;SDS011;33336;36.728;-4.414;2022-12-20T13:35:52;11.60;;;5.53;;
47617;SDS011;33336;36.728;-4.414;2022-12-20T13:41:11;7.82;;;5.13;;
47617;SDS011;33336;36.728;-4.414;2022-12-20T13:46:21;8.30;;;4.90;;
47617;SDS011;33336;36.728;-4.414;2022-12-20T13:51:29;7.07;;;3.53;;
47617;SDS011;33336;36.728;-4.414;2022-12-20T13:56:34;6.13;;;3.30;;
47617;SDS011;33336;36.728;-4.414;2022-12-20T14:01:47;9.23;;;4.65;;
47617;SDS011;33336;36.728;-4.414;2022-12-20T14:06:53;6.50;;;4.28;;
47617;SDS011;33336;36.728;-4.414;2022-12-20T14:12:03;7.30;;;4.40;;
47617;SDS011;33336;36.728;-4.414;2022-12-20T14:17:13;7.63;;;3.50;;
47617;SDS011;33336;36.728;-4.414;2022-12-20T14:22:18;9.15;;;3.72;;
47617;SDS011;33336;36.728;-4.414;2022-12-20T14:27:21;8.50;;;4.40;;
47617;SDS011;33336;36.728;-4.414;2022-12-20T14:32:25;14.02;;;5.78;;
47617;SDS011;33336;36.728;-4.414;2022-12-20T14:37:31;10.68;;;5.78;;
47617;SDS011;33336;36.728;-4.414;2022-12-20T14:42:38;6.85;;;5.18;;
47617;SDS011;33336;36.728;-4.414;2022-12-20T14:47:46;13.45;;;4.95;;
47617;SDS011;33336;36.728;-4.414;2022-12-20T14:58:24;13.10;;;4.05;;
47617;SDS011;33336;36.728;-4.414;2022-12-20T15:03:29;8.40;;;2.53;;
47617;SDS011;33336;36.728;-4.414;2022-12-20T15:08:36;4.18;;;2.50;;
47617;SDS011;33336;36.728;-4.414;2022-12-20T15:13:41;4.95;;;2.53;;
47617;SDS011;33336;36.728;-4.414;2022-12-20T15:18:45;6.33;;;2.47;;
47617;SDS011;33336;36.728;-4.414;2022-12-20T15:23:50;6.72;;;2.88;;
47617;SDS011;33336;36.728;-4.414;2022-12-20T15:28:54;7.18;;;3.58;;
47617;SDS011;33336;36.728;-4.414;2022-12-20T15:33:58;8.27;;;4.97;;
47617;SDS011;33336;36.728;-4.414;2022-12-20T15:39:03;9.77;;;4.30;;
47617;SDS011;33336;36.728;-4.414;2022-12-20T15:44:09;11.30;;;5.43;;
47617;SDS011;33336;36.728;-4.414;2022-12-20T15:49:17;8.05;;;3.40;;
47617;SDS011;33336;36.728;-4.414;2022-12-20T15:54:29;9.25;;;4.35;;
47617;SDS011;33336;36.728;-4.414;2022-12-20T16:04:43;10.25;;;3.58;;
47617;SDS011;33336;36.728;-4.414;2022-12-20T16:09:47;10.10;;;5.35;;
47617;SDS011;33336;36.728;-4.414;2022-12-20T16:14:50;11.88;;;4.35;;
47617;SDS011;33336;36.728;-4.414;2022-12-20T16:19:53;6.78;;;3.50;;
47617;SDS011;33336;36.728;-4.414;2022-12-20T16:24:57;12.48;;;5.50;;
47617;SDS011;33336;36.728;-4.414;2022-12-20T16:30:00;13.52;;;4.90;;
47617;SDS011;33336;36.728;-4.414;2022-12-20T16:35:04;11.32;;;5.60;;
47617;SDS011;33336;36.728;-4.414;2022-12-20T16:40:12;13.77;;;5.97;;
47617;SDS011;33336;36.728;-4.414;2022-12-20T16:45:18;11.20;;;6.30;;
47617;SDS011;33336;36.728;-4.414;2022-12-20T16:50:23;9.93;;;4.80;;
47617;SDS011;33336;36.728;-4.414;2022-12-20T16:55:31;13.15;;;6.85;;
47617;SDS011;33336;36.728;-4.414;2022-12-20T17:00:33;9.45;;;7.10;;
47617;SDS011;33336;36.728;-4.414;2022-12-20T17:05:38;9.55;;;7.22;;
47617;SDS011;33336;36.728;-4.414;2022-12-20T17:10:42;10.68;;;7.55;;
47617;SDS011;33336;36.728;-4.414;2022-12-20T17:15:46;11.43;;;5.85;;
47617;SDS011;33336;36.728;-4.414;2022-12-20T17:20:49;11.10;;;9.15;;
47617;SDS011;33336;36.728;-4.414;2022-12-20T17:25:54;16.52;;;8.85;;
47617;SDS011;33336;36.728;-4.414;2022-12-20T17:30:57;10.57;;;8.75;;
47617;SDS011;33336;36.728;-4.414;2022-12-20T17:36:01;16.45;;;10.90;;
47617;SDS011;33336;36.728;-4.414;2022-12-20T17:41:07;14.57;;;9.82;;
47617;SDS011;33336;36.728;-4.414;2022-12-20T17:46:22;18.27;;;10.17;;
47617;SDS011;33336;36.728;-4.414;2022-12-20T17:51:26;16.60;;;10.13;;
47617;SDS011;33336;36.728;-4.414;2022-12-20T17:56:32;17.17;;;10.88;;
47617;SDS011;33336;36.728;-4.414;2022-12-20T18:01:37;14.07;;;9.13;;
47617;SDS011;33336;36.728;-4.414;2022-12-20T18:06:42;16.08;;;12.10;;
47617;SDS011;33336;36.728;-4.414;2022-12-20T18:11:47;17.90;;;12.15;;
47617;SDS011;33336;36.728;-4.414;2022-12-20T18:16:51;15.50;;;11.82;;
47617;SDS011;33336;36.728;-4.414;2022-12-20T18:21:55;13.18;;;9.88;;
47617;SDS011;33336;36.728;-4.414;2022-12-20T18:26:59;18.50;;;9.43;;
47617;SDS011;33336;36.728;-4.414;2022-12-20T18:32:02;15.30;;;10.00;;
47617;SDS011;33336;36.728;-4.414;2022-12-20T18:37:06;13.25;;;9.05;;
47617;SDS011;33336;36.728;-4.414;2022-12-20T18:42:10;15.70;;;9.95;;
47617;SDS011;33336;36.728;-4.414;2022-12-20T18:47:14;18.45;;;11.32;;
47617;SDS011;33336;36.728;-4.414;2022-12-20T18:52:17;21.67;;;12.60;;
47617;SDS011;33336;36.728;-4.414;2022-12-20T18:57:21;13.85;;;9.38;;
47617;SDS011;33336;36.728;-4.414;2022-12-20T19:02:24;15.88;;;10.02;;
47617;SDS011;33336;36.728;-4.414;2022-12-20T19:07:27;18.25;;;10.73;;
47617;SDS011;33336;36.728;-4.414;2022-12-20T19:12:31;19.65;;;10.77;;
47617;SDS011;33336;36.728;-4.414;2022-12-20T19:17:36;18.23;;;11.02;;
47617;SDS011;33336;36.728;-4.414;2022-12-20T19:22:39;15.95;;;10.10;;
47617;SDS011;33336;36.728;-4.414;2022-12-20T19:27:43;12.65;;;10.70;;
47617;SDS011;33336;36.728;-4.414;2022-12-20T19:32:47;18.58;;;11.48;;
47617;SDS011;33336;36.728;-4.414;2022-12-20T19:37:50;20.33;;;11.90;;
47617;SDS011;33336;36.728;-4.414;2022-12-20T19:42:55;18.77;;;10.57;;
47617;SDS011;33336;36.728;-4.414;2022-12-20T19:47:59;20.15;;;10.85;;
47617;SDS011;33336;36.728;-4.414;2022-12-20T19:53:02;16.02;;;10.98;;
47617;SDS011;33336;36.728;-4.414;2022-12-20T19:58:06;18.17;;;10.73;;
47617;SDS011;33336;36.728;-4.414;2022-12-20T20:03:09;16.02;;;11.88;;
47617;SDS011;33336;36.728;-4.414;2022-12-20T20:08:13;20.80;;;12.38;;
47617;SDS011;33336;36.728;-4.414;2022-12-20T20:13:17;21.02;;;11.13;;
47617;SDS011;33336;36.728;-4.414;2022-12-20T20:18:21;20.77;;;11.55;;
47617;SDS011;33336;36.728;-4.414;2022-12-20T20:23:25;14.70;;;10.35;;
47617;SDS011;33336;36.728;-4.414;2022-12-20T20:28:33;23.67;;;11.25;;
47617;SDS011;33336;36.728;-4.414;2022-12-20T20:33:36;17.75;;;8.25;;
47617;SDS011;33336;36.728;-4.414;2022-12-20T20:38:40;20.67;;;9.80;;
47617;SDS011;33336;36.728;-4.414;2022-12-20T20:43:44;26.65;;;9.73;;
47617;SDS011;33336;36.728;-4.414;2022-12-20T20:48:48;14.98;;;9.82;;
47617;SDS011;33336;36.728;-4.414;2022-12-20T20:53:51;20.10;;;12.30;;
47617;SDS011;33336;36.728;-4.414;2022-12-20T20:58:55;20.67;;;11.95;;
47617;SDS011;33336;36.728;-4.414;2022-12-20T21:03:58;22.83;;;12.65;;
47617;SDS011;33336;36.728;-4.414;2022-12-20T21:09:02;21.88;;;11.70;;
47617;SDS011;33336;36.728;-4.414;2022-12-20T21:14:08;27.02;;;12.40;;
47617;SDS011;33336;36.728;-4.414;2022-12-20T21:19:11;14.30;;;9.75;;
47617;SDS011;33336;36.728;-4.414;2022-12-20T21:24:14;22.73;;;11.07;;
47617;SDS011;33336;36.728;-4.414;2022-12-20T21:29:18;23.92;;;10.27;;
47617;SDS011;33336;36.728;-4.414;2022-12-20T21:34:21;18.88;;;10.70;;
47617;SDS011;33336;36.728;-4.414;2022-12-20T21:39:25;14.77;;;9.55;;
47617;SDS011;33336;36.728;-4.414;2022-12-20T21:44:29;14.43;;;9.43;;
47617;SDS011;33336;36.728;-4.414;2022-12-20T21:49:32;24.75;;;11.73;;
47617;SDS011;33336;36.728;-4.414;2022-12-20T21:54:35;21.35;;;11.35;;
47617;SDS011;33336;36.728;-4.414;2022-12-20T21:59:41;20.58;;;11.88;;
47617;SDS011;33336;36.728;-4.414;2022-12-20T22:04:44;19.48;;;11.68;;
47617;SDS011;33336;36.728;-4.414;2022-12-20T22:09:48;26.05;;;11.57;;
47617;SDS011;33336;36.728;-4.414;2022-12-20T22:14:52;20.35;;;10.82;;
47617;SDS011;33336;36.728;-4.414;2022-12-20T22:19:56;20.98;;;13.15;;
47617;SDS011;33336;36.728;-4.414;2022-12-20T22:24:59;22.42;;;11.32;;
47617;SDS011;33336;36.728;-4.414;2022-12-20T22:30:07;20.88;;;11.43;;
47617;SDS011;33336;36.728;-4.414;2022-12-20T22:35:10;27.05;;;11.75;;
47617;SDS011;33336;36.728;-4.414;2022-12-20T22:40:14;21.80;;;10.82;;
47617;SDS011;33336;36.728;-4.414;2022-12-20T22:45:19;24.75;;;11.07;;
47617;SDS011;33336;36.728;-4.414;2022-12-20T22:50:21;23.15;;;10.43;;
47617;SDS011;33336;36.728;-4.414;2022-12-20T22:55:24;22.50;;;9.85;;
47617;SDS011;33336;36.728;-4.414;2022-12-20T23:00:29;29.95;;;10.27;;
47617;SDS011;33336;36.728;-4.414;2022-12-20T23:05:33;17.45;;;6.90;;
47617;SDS011;33336;36.728;-4.414;2022-12-20T23:10:38;25.23;;;7.05;;
47617;SDS011;33336;36.728;-4.414;2022-12-20T23:15:59;16.58;;;6.72;;
47617;SDS011;33336;36.728;-4.414;2022-12-20T23:21:04;14.95;;;5.13;;
47617;SDS011;33336;36.728;-4.414;2022-12-20T23:26:24;12.52;;;5.30;;
47617;SDS011;33336;36.728;-4.414;2022-12-20T23:31:39;19.35;;;8.15;;
47617;SDS011;33336;36.728;-4.414;2022-12-20T23:36:55;20.05;;;11.10;;
47617;SDS011;33336;36.728;-4.414;2022-12-20T23:42:00;19.75;;;11.07;;
47617;SDS011;33336;36.728;-4.414;2022-12-20T23:47:05;18.27;;;7.55;;
47617;SDS011;33336;36.728;-4.414;2022-12-20T23:52:09;15.10;;;7.15;;
47617;SDS011;33336;36.728;-4.414;2022-12-20T23:57:12;21.10;;;9.02;;
